createdAt,value
2022-11-02T00:00:20.396Z,63.71
2022-11-02T00:02:47.153Z,63.76
2022-11-02T00:05:14.884Z,63.90
2022-11-02T00:07:41.945Z,63.84
2022-11-02T00:10:10.997Z,63.94
2022-11-02T00:12:37.767Z,63.56
2022-11-02T00:15:05.150Z,64.01
2022-11-02T00:17:32.438Z,63.88
2022-11-02T00:19:59.497Z,63.71
2022-11-02T00:22:27.015Z,63.63
2022-11-02T00:24:54.013Z,63.75
2022-11-02T00:27:20.757Z,63.70
2022-11-02T00:29:47.444Z,63.47
2022-11-02T00:32:14.041Z,63.41
2022-11-02T00:34:40.817Z,63.51
2022-11-02T00:37:07.615Z,63.07
2022-11-02T00:39:34.208Z,63.22
2022-11-02T00:42:00.803Z,63.18
2022-11-02T00:44:27.403Z,63.03
2022-11-02T00:46:54.050Z,63.32
2022-11-02T00:49:20.839Z,63.30
2022-11-02T00:51:47.562Z,63.10
2022-11-02T00:54:14.178Z,63.09
2022-11-02T00:56:40.804Z,63.28
2022-11-02T00:59:07.600Z,63.10
2022-11-02T01:01:34.545Z,62.95
2022-11-02T01:04:01.241Z,63.19
2022-11-02T01:06:28.337Z,62.93
2022-11-02T01:08:55.655Z,63.28
2022-11-02T01:11:24.244Z,62.85
2022-11-02T01:13:52.224Z,63.15
2022-11-02T01:16:19.300Z,63.14
2022-11-02T01:18:46.102Z,63.15
2022-11-02T01:21:12.804Z,63.18
2022-11-02T01:23:39.608Z,63.01
2022-11-02T01:26:08.705Z,63.03
2022-11-02T01:28:36.283Z,63.17
2022-11-02T01:31:03.214Z,63.16
2022-11-02T01:33:29.788Z,63.08
2022-11-02T01:35:56.856Z,63.00
2022-11-02T01:38:24.106Z,62.88
2022-11-02T01:40:51.184Z,63.31
2022-11-02T01:43:32.171Z,62.99
2022-11-02T01:46:05.472Z,62.96
2022-11-02T01:49:03.992Z,62.94
2022-11-02T01:51:38.872Z,63.03
2022-11-02T01:54:10.985Z,63.01
2022-11-02T01:56:40.117Z,63.10
2022-11-02T01:59:13.168Z,63.13
2022-11-02T02:01:40.070Z,63.30
2022-11-02T02:04:06.782Z,63.05
2022-11-02T02:06:33.742Z,63.26
2022-11-02T02:09:04.422Z,63.26
2022-11-02T02:11:37.341Z,63.12
2022-11-02T02:14:14.467Z,63.19
2022-11-02T02:17:14.497Z,63.17
2022-11-02T02:20:11.248Z,63.37
2022-11-02T02:23:33.636Z,63.43
2022-11-02T02:26:40.245Z,63.30
2022-11-02T02:29:21.229Z,63.31
2022-11-02T02:32:15.186Z,63.30
2022-11-02T02:35:13.975Z,63.37
2022-11-02T02:37:49.895Z,63.20
2022-11-02T02:40:26.912Z,63.33
2022-11-02T02:42:57.263Z,63.25
2022-11-02T02:45:37.585Z,63.38
2022-11-02T02:48:16.717Z,63.71
2022-11-02T02:50:49.032Z,63.23
2022-11-02T02:53:16.549Z,63.57
2022-11-02T02:55:48.473Z,63.44
2022-11-02T02:58:23.617Z,63.38
2022-11-02T03:00:53.039Z,63.50
2022-11-02T03:03:23.992Z,63.39
2022-11-02T03:06:24.759Z,63.41
2022-11-02T03:09:19.104Z,63.53
2022-11-02T03:12:59.576Z,63.43
2022-11-02T03:15:44.004Z,63.33
2022-11-02T03:18:25.351Z,63.41
2022-11-02T03:21:40.493Z,63.35
2022-11-02T03:24:23.369Z,63.52
2022-11-02T03:27:26.631Z,63.59
2022-11-02T03:30:15.775Z,63.73
2022-11-02T03:44:27.792Z,63.29
2022-11-02T03:47:00.107Z,63.20
2022-11-02T03:49:29.936Z,63.25
2022-11-02T03:52:01.978Z,62.90
2022-11-02T03:55:09.100Z,62.85
2022-11-02T03:57:44.091Z,62.91
2022-11-02T04:00:14.123Z,62.93
2022-11-02T04:02:44.849Z,62.97
2022-11-02T04:05:11.604Z,63.05
2022-11-02T04:07:59.839Z,63.05
2022-11-02T04:10:26.688Z,63.00
2022-11-02T04:13:11.729Z,62.96
2022-11-02T04:15:38.595Z,63.11
2022-11-02T04:18:23.696Z,62.79
2022-11-02T04:20:51.090Z,62.72
2022-11-02T04:23:37.257Z,62.82
2022-11-02T04:26:05.126Z,62.92
2022-11-02T04:28:31.769Z,62.94
2022-11-02T04:31:00.105Z,63.06
2022-11-02T04:33:32.808Z,62.92
2022-11-02T04:36:01.571Z,62.93
2022-11-02T04:38:41.900Z,62.64
2022-11-02T04:41:32.904Z,62.57
2022-11-02T04:44:00.164Z,62.93
2022-11-02T04:46:32.074Z,62.78
2022-11-02T04:48:58.884Z,62.82
2022-11-02T04:51:27.607Z,62.83
2022-11-02T04:53:55.686Z,62.66
2022-11-02T04:56:22.597Z,62.89
2022-11-02T04:58:59.835Z,62.71
2022-11-02T05:01:28.952Z,62.78
2022-11-02T05:03:56.433Z,62.82
2022-11-02T05:06:24.158Z,62.65
2022-11-02T05:08:50.894Z,62.87
2022-11-02T05:11:18.097Z,62.57
2022-11-02T05:13:45.491Z,62.72
2022-11-02T05:16:14.926Z,62.85
2022-11-02T05:18:41.788Z,62.51
2022-11-02T05:21:10.053Z,62.31
2022-11-02T05:23:37.042Z,62.03
2022-11-02T05:26:07.025Z,61.93
2022-11-02T05:28:33.678Z,61.72
2022-11-02T05:31:02.136Z,61.38
2022-11-02T05:33:30.960Z,61.50
2022-11-02T05:35:59.304Z,61.44
2022-11-02T05:38:27.509Z,61.18
2022-11-02T05:40:55.830Z,61.24
2022-11-02T05:43:22.628Z,61.20
2022-11-02T05:45:56.481Z,60.98
2022-11-02T05:48:24.503Z,60.96
2022-11-02T05:50:59.329Z,61.06
2022-11-02T05:53:27.055Z,60.89
2022-11-02T05:55:58.689Z,60.91
2022-11-02T05:58:26.146Z,60.69
2022-11-02T06:00:53.188Z,61.03
2022-11-02T06:03:20.935Z,60.97
2022-11-02T06:05:47.610Z,60.97
2022-11-02T06:08:14.360Z,61.17
2022-11-02T06:10:43.259Z,61.21
2022-11-02T06:13:10.277Z,61.22
2022-11-02T06:15:36.982Z,60.99
2022-11-02T06:18:03.858Z,60.91
2022-11-02T06:20:30.546Z,61.20
2022-11-02T06:22:57.442Z,61.20
2022-11-02T06:25:24.211Z,61.05
2022-11-02T06:27:53.093Z,61.12
2022-11-02T06:30:19.826Z,61.15
2022-11-02T06:32:48.244Z,61.12
2022-11-02T06:35:15.882Z,61.12
2022-11-02T06:37:42.478Z,61.04
2022-11-02T06:40:10.778Z,61.11
2022-11-02T06:42:44.841Z,61.10
2022-11-02T06:45:17.480Z,61.08
2022-11-02T06:47:44.254Z,61.09
2022-11-02T06:50:10.894Z,61.44
2022-11-02T06:52:43.182Z,61.08
2022-11-02T06:55:09.660Z,61.32
2022-11-02T06:57:37.406Z,61.20
2022-11-02T07:00:05.974Z,61.38
2022-11-02T07:02:32.892Z,61.42
2022-11-02T07:04:59.835Z,61.41
2022-11-02T07:07:26.465Z,61.25
2022-11-02T07:09:53.248Z,61.30
2022-11-02T07:12:23.027Z,61.36
2022-11-02T07:14:49.948Z,61.32
2022-11-02T07:17:16.775Z,61.29
2022-11-02T07:19:43.481Z,61.54
2022-11-02T07:22:10.136Z,61.47
2022-11-02T07:24:36.910Z,61.46
2022-11-02T07:27:03.621Z,61.34
2022-11-02T07:29:30.214Z,61.31
2022-11-02T07:31:56.927Z,61.30
2022-11-02T07:34:23.753Z,61.39
2022-11-02T07:36:50.599Z,61.41
2022-11-02T07:39:18.876Z,61.51
2022-11-02T07:41:50.819Z,61.27
2022-11-02T07:44:18.421Z,61.48
2022-11-02T07:46:45.296Z,61.30
2022-11-02T07:49:12.109Z,61.41
2022-11-02T07:51:38.698Z,61.28
2022-11-02T07:54:05.458Z,61.31
2022-11-02T07:56:32.251Z,61.38
2022-11-02T07:58:58.863Z,61.49
2022-11-02T08:01:25.450Z,61.09
2022-11-02T08:03:52.145Z,61.10
2022-11-02T08:06:18.772Z,60.83
2022-11-02T08:08:45.431Z,60.91
2022-11-02T08:11:12.241Z,60.69
2022-11-02T08:13:39.093Z,60.74
2022-11-02T08:16:06.110Z,60.64
2022-11-02T08:18:32.962Z,60.37
2022-11-02T08:20:59.880Z,60.43
2022-11-02T08:23:27.343Z,60.14
2022-11-02T08:25:55.172Z,60.40
2022-11-02T08:28:25.004Z,60.40
2022-11-02T08:30:52.423Z,60.34
2022-11-02T08:33:21.246Z,60.43
2022-11-02T08:35:48.934Z,60.44
2022-11-02T08:38:16.504Z,60.93
2022-11-02T08:40:43.503Z,60.54
2022-11-02T08:43:12.969Z,60.74
2022-11-02T08:48:28.572Z,60.66
2022-11-02T08:50:56.226Z,60.45
2022-11-02T08:53:22.909Z,60.52
2022-11-02T08:55:49.506Z,60.58
2022-11-02T08:58:16.199Z,60.59
2022-11-02T09:00:51.764Z,60.57
2022-11-02T09:03:25.014Z,60.43
2022-11-02T09:05:58.208Z,60.47
2022-11-02T09:08:25.515Z,60.60
2022-11-02T09:10:52.561Z,60.70
2022-11-02T09:13:25.234Z,60.48
2022-11-02T09:15:54.224Z,60.38
2022-11-02T09:18:21.232Z,60.44
2022-11-02T09:20:48.724Z,60.19
2022-11-02T09:23:19.422Z,60.14
2022-11-02T09:25:46.252Z,60.21
2022-11-02T09:28:14.023Z,59.92
2022-11-02T09:30:40.609Z,60.01
2022-11-02T09:33:07.471Z,60.21
2022-11-02T09:35:41.451Z,60.31
2022-11-02T09:38:08.283Z,60.20
2022-11-02T09:40:44.336Z,60.20
2022-11-02T09:43:32.611Z,60.23
2022-11-02T09:46:12.340Z,60.09
2022-11-02T09:49:04.923Z,60.06
2022-11-02T09:51:36.286Z,60.00
2022-11-02T09:54:28.899Z,60.11
2022-11-02T09:56:57.738Z,60.13
2022-11-02T09:59:26.837Z,60.30
2022-11-02T10:02:32.440Z,60.20
2022-11-02T10:05:41.634Z,59.97
2022-11-02T10:08:40.781Z,60.00
2022-11-02T10:11:17.361Z,60.10
2022-11-02T10:13:56.656Z,60.12
2022-11-02T10:16:53.282Z,60.10
2022-11-02T10:19:23.926Z,60.00
2022-11-02T10:21:57.780Z,59.94
2022-11-02T10:24:45.944Z,59.87
2022-11-02T10:27:20.220Z,59.97
2022-11-02T10:30:03.613Z,59.78
2022-11-02T10:32:32.454Z,59.68
2022-11-02T10:35:17.515Z,59.54
2022-11-02T10:38:14.949Z,59.53
2022-11-02T10:55:26.593Z,59.32
2022-11-02T10:57:56.183Z,59.27
2022-11-02T11:00:36.809Z,59.18
2022-11-02T11:03:16.379Z,59.35
2022-11-02T11:06:02.049Z,59.26
2022-11-02T11:11:27.921Z,59.33
2022-11-02T11:19:51.548Z,59.68
2022-11-02T11:22:38.608Z,59.62
2022-11-02T11:25:27.818Z,59.58
2022-11-02T11:27:59.041Z,59.57
2022-11-02T11:30:59.505Z,59.66
2022-11-02T11:33:21.011Z,59.54
2022-11-02T11:35:50.035Z,59.62
2022-11-02T11:38:21.264Z,59.54
2022-11-02T11:40:54.021Z,59.65
2022-11-02T11:43:23.944Z,59.62
2022-11-02T11:46:08.092Z,59.71
2022-11-02T11:48:50.267Z,59.69
2022-11-02T11:51:51.593Z,59.48
2022-11-02T11:54:31.387Z,59.92
2022-11-02T11:57:00.099Z,59.80
2022-11-02T11:59:49.603Z,59.80
2022-11-02T12:02:32.431Z,59.83
2022-11-02T12:05:28.296Z,59.62
2022-11-02T12:08:22.349Z,59.91
2022-11-02T12:11:36.841Z,59.84
2022-11-02T12:15:02.547Z,60.00
2022-11-02T12:17:54.956Z,59.93
2022-11-02T12:21:04.237Z,60.01
2022-11-02T12:24:01.309Z,60.03
2022-11-02T12:26:59.720Z,59.99
2022-11-02T12:30:00.500Z,60.04
2022-11-02T12:33:04.051Z,60.01
2022-11-02T12:36:06.353Z,60.05
2022-11-02T12:39:08.917Z,60.19
2022-11-02T13:22:38.223Z,59.85
2022-11-02T13:25:21.345Z,60.10
2022-11-02T13:27:55.173Z,60.05
2022-11-02T13:30:21.726Z,60.13
2022-11-02T13:33:04.838Z,60.01
2022-11-02T13:35:37.734Z,59.97
2022-11-02T13:38:51.588Z,59.92
2022-11-02T13:41:58.884Z,59.99
2022-11-02T13:45:14.164Z,60.25
2022-11-02T13:48:32.023Z,59.92
2022-11-02T13:51:04.859Z,59.81
2022-11-02T13:53:38.592Z,59.68
2022-11-02T13:56:11.550Z,59.59
2022-11-02T13:58:46.794Z,59.38
2022-11-02T14:01:17.840Z,59.26
2022-11-02T14:04:11.459Z,59.44
2022-11-02T14:06:58.979Z,59.10
2022-11-02T14:09:34.474Z,59.01
2022-11-02T14:12:41.200Z,59.13
2022-11-02T14:15:38.243Z,59.03
2022-11-02T14:18:15.664Z,59.11
2022-11-02T14:20:46.484Z,58.89
2022-11-02T14:23:36.139Z,59.00
2022-11-02T14:26:02.777Z,59.09
2022-11-02T14:28:43.055Z,59.08
2022-11-02T14:31:38.960Z,59.30
2022-11-02T14:34:33.166Z,59.21
2022-11-02T14:37:35.534Z,59.29
2022-11-02T14:40:28.030Z,59.13
2022-11-02T14:43:56.101Z,59.03
2022-11-02T14:46:59.608Z,59.31
2022-11-02T14:49:32.296Z,59.26
2022-11-02T14:52:27.970Z,59.30
2022-11-02T14:55:23.693Z,59.30
2022-11-02T14:58:15.395Z,59.34
2022-11-02T15:01:13.406Z,59.08
2022-11-02T15:03:42.289Z,59.15
2022-11-02T15:06:28.217Z,59.21
2022-11-02T15:08:57.725Z,59.10
2022-11-02T15:11:57.760Z,59.30
2022-11-02T15:14:59.031Z,59.28
2022-11-02T15:18:07.158Z,59.42
2022-11-02T15:20:33.929Z,59.14
2022-11-02T15:23:30.076Z,59.23
2022-11-02T15:25:59.349Z,59.25
2022-11-02T15:28:29.682Z,59.25
2022-11-02T15:30:59.875Z,59.26
2022-11-02T15:33:36.538Z,59.38
2022-11-02T15:36:06.468Z,59.33
2022-11-02T15:38:39.432Z,59.36
2022-11-02T15:41:44.382Z,59.49
2022-11-02T15:44:30.808Z,59.39
2022-11-02T15:47:37.397Z,59.37
2022-11-02T15:50:34.996Z,59.39
2022-11-02T15:53:49.953Z,59.39
2022-11-02T15:57:05.375Z,59.52
2022-11-02T15:59:49.512Z,59.17
2022-11-02T16:02:46.573Z,59.28
2022-11-02T16:05:23.827Z,59.45
2022-11-02T16:10:39.546Z,59.30
2022-11-02T16:13:20.668Z,59.40
2022-11-02T16:15:49.165Z,59.36
2022-11-02T16:18:43.172Z,59.45
2022-11-02T16:21:16.220Z,59.32
2022-11-02T16:23:47.486Z,59.54
2022-11-02T16:26:21.901Z,59.45
2022-11-02T16:28:51.432Z,59.41
2022-11-02T16:31:23.025Z,59.37
2022-11-02T16:33:54.378Z,59.46
2022-11-02T16:36:27.075Z,59.53
2022-11-02T16:39:25.165Z,59.41
2022-11-02T16:41:55.689Z,59.62
2022-11-02T16:44:28.403Z,59.59
2022-11-02T16:47:17.049Z,59.34
2022-11-02T16:50:20.070Z,59.42
2022-11-02T16:52:55.375Z,59.50
2022-11-02T16:55:45.510Z,59.23
2022-11-02T16:58:21.257Z,59.37
2022-11-02T17:00:57.256Z,59.33
2022-11-02T17:03:30.604Z,59.18
2022-11-02T17:05:59.818Z,59.33
2022-11-02T17:08:35.480Z,59.60
2022-11-02T17:11:05.567Z,59.36
2022-11-02T17:13:36.621Z,59.33
2022-11-02T17:16:06.544Z,59.50
2022-11-02T17:18:33.129Z,59.50
2022-11-02T17:21:29.675Z,59.46
2022-11-02T17:23:58.364Z,59.72
2022-11-02T17:26:31.188Z,59.50
2022-11-02T17:29:30.867Z,59.43
2022-11-02T17:32:00.777Z,59.22
2022-11-02T17:34:28.161Z,59.18
2022-11-02T17:36:55.051Z,59.29
2022-11-02T17:39:21.660Z,59.25
2022-11-02T17:42:12.386Z,59.03
2022-11-02T17:44:39.393Z,59.11
2022-11-02T17:47:11.396Z,59.12
2022-11-02T17:49:38.005Z,58.99
2022-11-02T17:52:05.133Z,58.50
2022-11-02T17:54:31.744Z,58.85
2022-11-02T17:57:01.877Z,58.75
2022-11-02T17:59:29.008Z,58.52
2022-11-02T18:01:55.713Z,58.44
2022-11-02T18:04:22.376Z,58.27
2022-11-02T18:06:48.994Z,58.38
2022-11-02T18:09:19.236Z,58.30
2022-11-02T18:11:46.419Z,58.38
2022-11-02T18:14:15.674Z,58.34
2022-11-02T18:16:43.385Z,58.34
2022-11-02T18:19:10.164Z,58.25
2022-11-02T18:21:36.980Z,58.14
2022-11-02T18:24:03.805Z,58.39
2022-11-02T18:26:30.407Z,58.13
2022-11-02T18:28:57.577Z,58.17
2022-11-02T18:31:24.558Z,58.18
2022-11-02T18:33:53.047Z,57.93
2022-11-02T18:36:20.068Z,57.99
2022-11-02T18:38:46.707Z,58.01
2022-11-02T18:41:32.059Z,58.15
2022-11-02T18:44:05.551Z,57.89
2022-11-02T18:46:34.931Z,57.92
2022-11-02T18:49:02.106Z,57.93
2022-11-02T18:51:28.883Z,57.93
2022-11-02T18:54:00.789Z,57.83
2022-11-02T18:56:27.508Z,57.69
2022-11-02T18:58:55.499Z,57.77
2022-11-02T19:01:24.164Z,57.74
2022-11-02T19:03:56.605Z,57.79
2022-11-02T19:06:43.180Z,57.92
2022-11-02T19:09:21.446Z,57.82
2022-11-02T19:12:01.540Z,57.83
2022-11-02T19:14:29.944Z,57.73
2022-11-02T19:16:56.540Z,57.77
2022-11-02T19:19:23.336Z,57.96
2022-11-02T19:21:50.012Z,57.75
2022-11-02T19:24:16.738Z,57.74
2022-11-02T19:26:43.314Z,57.71
2022-11-02T19:29:10.004Z,57.76
2022-11-02T19:31:36.793Z,57.79
2022-11-02T19:34:04.187Z,57.87
2022-11-02T19:36:32.740Z,57.73
2022-11-02T19:39:00.207Z,57.81
2022-11-02T19:41:27.030Z,57.56
2022-11-02T19:43:53.853Z,57.58
2022-11-02T19:46:22.072Z,57.60
2022-11-02T19:48:49.117Z,57.70
2022-11-02T19:51:20.890Z,57.45
2022-11-02T19:53:52.387Z,57.62
2022-11-02T19:56:20.370Z,57.47
2022-11-02T19:58:49.079Z,57.43
2022-11-02T20:01:17.938Z,57.41
2022-11-02T20:03:46.280Z,57.38
2022-11-02T20:06:33.004Z,57.19
2022-11-02T20:09:01.754Z,57.30
2022-11-02T20:11:28.897Z,57.38
2022-11-02T20:14:00.160Z,57.27
2022-11-02T20:16:27.371Z,57.34
2022-11-02T20:18:54.575Z,57.20
2022-11-02T20:21:33.301Z,57.02
2022-11-02T20:24:01.218Z,57.07
2022-11-02T20:26:38.199Z,56.94
2022-11-02T20:29:06.421Z,56.80
2022-11-02T20:31:38.537Z,56.94
2022-11-02T20:34:08.225Z,56.85
2022-11-02T20:36:35.198Z,56.90
2022-11-02T20:39:04.736Z,56.99
2022-11-02T20:41:31.684Z,56.79
2022-11-02T20:43:58.251Z,56.88
2022-11-02T20:46:43.297Z,56.93
2022-11-02T20:49:22.290Z,57.10
2022-11-02T20:51:56.116Z,57.02
2022-11-02T20:54:22.941Z,56.93
2022-11-02T20:56:50.427Z,56.88
2022-11-02T20:59:17.932Z,56.98
2022-11-02T21:01:45.370Z,56.98
2022-11-02T21:04:18.597Z,56.99
2022-11-02T21:06:47.178Z,57.06
2022-11-02T21:09:13.770Z,56.96
2022-11-02T21:11:59.187Z,56.97
2022-11-02T21:14:25.795Z,56.67
2022-11-02T21:16:52.377Z,56.75
2022-11-02T21:19:19.084Z,56.95
2022-11-02T21:21:45.923Z,56.85
2022-11-02T21:24:12.635Z,56.55
2022-11-02T21:26:39.472Z,56.84
2022-11-02T21:29:06.125Z,56.57
2022-11-02T21:31:32.792Z,56.61
2022-11-02T21:33:59.611Z,56.76
2022-11-02T21:36:26.157Z,56.38
2022-11-02T21:38:53.060Z,56.70
2022-11-02T21:41:22.219Z,56.58
2022-11-02T21:43:52.017Z,56.55
2022-11-02T21:46:19.829Z,56.47
2022-11-02T21:48:47.173Z,56.36
2022-11-02T21:51:19.625Z,56.45
2022-11-02T21:53:47.714Z,56.52
2022-11-02T21:56:19.904Z,56.39
2022-11-02T21:58:47.692Z,56.37
2022-11-02T22:01:39.191Z,56.50
2022-11-02T22:04:07.208Z,56.41
2022-11-02T22:06:34.861Z,56.40
2022-11-02T22:09:02.240Z,56.42
2022-11-02T22:11:29.215Z,56.50
2022-11-02T22:13:57.952Z,56.28
2022-11-02T22:16:27.923Z,56.39
2022-11-02T22:18:57.010Z,56.41
2022-11-02T22:21:25.032Z,56.51
2022-11-02T22:23:51.978Z,56.36
2022-11-02T22:26:23.451Z,56.82
2022-11-02T22:28:50.988Z,56.39
2022-11-02T22:31:29.705Z,56.48
2022-11-02T22:33:58.539Z,56.30
2022-11-02T22:36:27.445Z,56.55
2022-11-02T22:38:56.198Z,56.52
2022-11-02T22:41:31.208Z,56.42
2022-11-02T22:44:04.778Z,56.67
2022-11-02T22:46:35.139Z,56.52
2022-11-02T22:49:02.789Z,56.43
2022-11-02T22:51:31.374Z,56.36
2022-11-02T22:54:01.564Z,56.22
2022-11-02T22:56:28.240Z,55.96
2022-11-02T22:58:54.843Z,56.03
2022-11-02T23:01:23.993Z,56.08
2022-11-02T23:03:51.193Z,56.20
2022-11-02T23:06:21.279Z,55.87
2022-11-02T23:08:48.978Z,55.95
2022-11-02T23:11:23.870Z,55.82
2022-11-02T23:14:02.169Z,55.74
2022-11-02T23:16:36.818Z,55.75
2022-11-02T23:19:28.991Z,55.77
2022-11-02T23:22:16.497Z,55.87
2022-11-02T23:25:04.410Z,55.68
2022-11-02T23:27:33.224Z,55.34
2022-11-02T23:30:18.527Z,55.46
2022-11-02T23:32:45.199Z,55.71
2022-11-02T23:35:30.253Z,55.45
2022-11-02T23:38:04.659Z,55.67
2022-11-02T23:40:32.325Z,55.76
2022-11-02T23:42:59.061Z,55.43
2022-11-02T23:45:25.862Z,55.44
2022-11-02T23:48:00.099Z,55.76
2022-11-02T23:50:48.538Z,55.68
2022-11-02T23:53:35.876Z,55.44
2022-11-02T23:56:21.308Z,55.41
2022-11-02T23:58:47.981Z,55.66
